Time;durP1;ratioP1;P1;durP2;ratioP2;P2;SDS_P1;SDS_P2;PMS_P1;PMS_P2;Temp;Humidity;BMP_temperature;BMP_pressure;BME280_temperature;BME280_humidity;BME280_pressure;Samples;Min_cycle;Max_cycle;Signal;HPM_P1;HPM_P2
2023/05/17 00:00:31;;;;;;;10.88;5.72;;;7.80;99.90;;;;;;5053064;28;20025;-65
2023/05/17 00:02:56;;;;;;;16.98;5.43;;;7.80;99.90;;;;;;5053429;28;20029;-65
2023/05/17 00:05:22;;;;;;;17.35;5.63;;;7.80;99.90;;;;;;5056484;28;20096;-65
2023/05/17 00:07:48;;;;;;;12.20;5.03;;;7.80;99.90;;;;;;5056359;28;20029;-65
2023/05/17 00:10:14;;;;;;;14.20;5.65;;;7.80;99.90;;;;;;5056891;28;20033;-65
2023/05/17 00:12:39;;;;;;;12.63;5.38;;;7.80;99.90;;;;;;5056279;28;20077;-65
2023/05/17 00:15:05;;;;;;;15.27;5.50;;;7.70;99.90;;;;;;5056227;28;20045;-65
2023/05/17 00:17:31;;;;;;;11.07;5.45;;;7.70;99.90;;;;;;5056678;28;20529;-65
2023/05/17 00:19:56;;;;;;;12.90;5.38;;;7.70;99.90;;;;;;5056141;28;20064;-65
2023/05/17 00:22:22;;;;;;;18.50;6.03;;;7.70;99.90;;;;;;5056653;28;20451;-65
2023/05/17 00:24:48;;;;;;;12.82;5.03;;;7.70;99.90;;;;;;5056050;28;20029;-65
2023/05/17 00:27:13;;;;;;;14.52;5.70;;;7.70;99.90;;;;;;5056292;28;20362;-65
2023/05/17 00:29:39;;;;;;;17.52;6.18;;;7.70;99.90;;;;;;5056527;28;20056;-65
2023/05/17 00:32:04;;;;;;;12.27;5.95;;;7.70;99.90;;;;;;5056483;28;20036;-65
2023/05/17 00:34:30;;;;;;;12.23;5.80;;;7.70;99.90;;;;;;5056034;28;20505;-65
2023/05/17 00:36:55;;;;;;;9.70;5.22;;;7.70;99.90;;;;;;5056330;28;20036;-65
2023/05/17 00:39:21;;;;;;;17.08;5.38;;;7.70;99.90;;;;;;5056328;28;20025;-65
2023/05/17 00:41:47;;;;;;;23.02;6.20;;;7.80;99.90;;;;;;5056289;28;20453;-65
2023/05/17 00:44:12;;;;;;;13.18;6.28;;;7.80;99.90;;;;;;5055981;28;20025;-65
2023/05/17 00:46:38;;;;;;;17.60;6.90;;;7.70;99.90;;;;;;5055638;28;20024;-65
2023/05/17 00:49:03;;;;;;;18.73;6.18;;;7.70;99.90;;;;;;5056186;28;20025;-65
2023/05/17 00:51:30;;;;;;;18.88;6.68;;;7.70;99.90;;;;;;5056154;28;20064;-65
2023/05/17 00:53:55;;;;;;;16.63;6.55;;;7.70;99.90;;;;;;5055788;28;20032;-66
2023/05/17 00:56:22;;;;;;;17.42;6.22;;;7.60;99.90;;;;;;5055176;28;20383;-64
2023/05/17 00:58:48;;;;;;;15.18;6.47;;;7.60;99.90;;;;;;5054263;28;20028;-65
2023/05/17 01:01:14;;;;;;;15.50;6.00;;;7.60;99.90;;;;;;5055956;28;20370;-65
2023/05/17 01:03:40;;;;;;;15.80;6.30;;;7.60;99.90;;;;;;5055360;28;20063;-65
2023/05/17 01:06:05;;;;;;;22.58;6.72;;;7.50;99.90;;;;;;5055873;28;20028;-64
2023/05/17 01:08:31;;;;;;;16.38;6.90;;;7.50;99.90;;;;;;5055618;28;20029;-64
2023/05/17 01:13:57;;;;;;;16.25;6.22;;;7.40;99.90;;;;;;5071373;28;20387;-65
2023/05/17 01:16:32;;;;;;;21.70;7.57;;;7.40;99.90;;;;;;5071089;28;20036;-65
2023/05/17 01:19:22;;;;;;;16.00;6.28;;;7.40;99.90;;;;;;5071024;28;20055;-65
2023/05/17 01:22:09;;;;;;;18.85;7.22;;;7.30;99.90;;;;;;5069631;28;20075;-65
2023/05/17 01:24:59;;;;;;;17.58;7.50;;;7.40;99.90;;;;;;5050955;28;20021;-65
2023/05/17 01:27:27;;;;;;;14.90;7.38;;;7.30;99.90;;;;;;5051350;28;20451;-65
2023/05/17 01:29:55;;;;;;;18.30;7.38;;;7.30;99.90;;;;;;5050468;28;20495;-65
2023/05/17 01:32:22;;;;;;;18.80;7.78;;;7.30;99.90;;;;;;5049615;28;20083;-73
2023/05/17 01:34:48;;;;;;;18.40;7.82;;;7.20;99.90;;;;;;5051059;28;20120;-65
2023/05/17 01:37:13;;;;;;;17.90;8.30;;;7.20;99.90;;;;;;5050462;28;20100;-65
2023/05/17 01:39:40;;;;;;;22.25;7.25;;;7.20;99.90;;;;;;5051087;28;20029;-65
2023/05/17 01:42:14;;;;;;;19.95;7.70;;;7.20;99.90;;;;;;5050945;28;20021;-65
2023/05/17 01:44:49;;;;;;;19.13;8.10;;;7.20;99.90;;;;;;5050254;28;20063;-65
2023/05/17 01:47:23;;;;;;;23.00;7.97;;;7.20;99.90;;;;;;5050417;28;20044;-65
2023/05/17 01:49:52;;;;;;;21.33;9.23;;;7.20;99.90;;;;;;5050241;28;20021;-65
2023/05/17 01:52:30;;;;;;;20.23;8.00;;;7.10;99.90;;;;;;5050465;28;20025;-65
2023/05/17 01:55:36;;;;;;;22.02;7.63;;;7.10;99.90;;;;;;5050470;28;20433;-65
2023/05/17 01:58:05;;;;;;;20.77;7.63;;;7.10;99.90;;;;;;5049765;28;20032;-65
2023/05/17 02:00:31;;;;;;;24.83;7.90;;;7.20;99.90;;;;;;5049405;28;20026;-67
2023/05/17 02:02:56;;;;;;;21.42;8.98;;;7.10;99.90;;;;;;5050554;28;20067;-65
2023/05/17 02:05:22;;;;;;;17.05;7.72;;;7.10;99.90;;;;;;5049946;28;20029;-65
2023/05/17 02:07:48;;;;;;;20.23;7.78;;;7.00;99.90;;;;;;5050165;28;20033;-65
2023/05/17 02:10:13;;;;;;;19.58;8.18;;;7.00;99.90;;;;;;5050389;28;20102;-65
2023/05/17 02:12:39;;;;;;;29.60;8.52;;;6.90;99.90;;;;;;5049391;28;20049;-65
2023/05/17 02:15:06;;;;;;;25.23;8.45;;;6.90;99.90;;;;;;5049978;28;20028;-65
2023/05/17 02:17:31;;;;;;;23.27;8.10;;;6.90;99.90;;;;;;5049425;28;20105;-66
2023/05/17 02:19:57;;;;;;;21.80;8.88;;;6.80;99.90;;;;;;5050235;28;20120;-65
2023/05/17 02:22:22;;;;;;;28.88;10.00;;;6.80;99.90;;;;;;5049938;28;20143;-65
2023/05/17 02:24:48;;;;;;;29.55;9.60;;;6.80;99.90;;;;;;5038144;28;20040;-68
2023/05/17 02:27:13;;;;;;;23.42;9.63;;;6.80;99.90;;;;;;5036792;28;20033;-65
2023/05/17 02:29:39;;;;;;;23.83;9.80;;;6.80;99.90;;;;;;5036333;28;20033;-65
2023/05/17 02:32:05;;;;;;;24.05;8.65;;;6.70;99.90;;;;;;5036102;28;20522;-65
2023/05/17 02:34:30;;;;;;;22.77;8.38;;;6.70;99.90;;;;;;5036416;28;20021;-65
2023/05/17 02:36:56;;;;;;;22.70;8.40;;;6.60;99.90;;;;;;5036443;28;20032;-65
2023/05/17 02:39:22;;;;;;;20.35;8.88;;;6.50;99.90;;;;;;5036848;28;20374;-65
2023/05/17 02:41:48;;;;;;;24.35;9.27;;;6.50;99.90;;;;;;5036359;28;20025;-65
2023/05/17 02:44:13;;;;;;;19.90;8.38;;;6.60;99.90;;;;;;5035989;28;20048;-65
2023/05/17 02:46:39;;;;;;;21.02;8.50;;;6.60;99.90;;;;;;5036496;28;20131;-65
2023/05/17 02:49:04;;;;;;;34.60;10.80;;;6.60;99.90;;;;;;5036441;28;20036;-68
2023/05/17 02:51:30;;;;;;;33.05;11.38;;;6.70;99.90;;;;;;5036061;28;20029;-65
2023/05/17 02:53:55;;;;;;;27.45;10.93;;;6.80;99.90;;;;;;5036232;28;20490;-65
2023/05/17 02:56:21;;;;;;;32.42;12.07;;;7.00;99.90;;;;;;5036342;28;20037;-65
2023/05/17 02:58:46;;;;;;;32.40;10.75;;;7.00;99.90;;;;;;5035694;28;20021;-65
2023/05/17 03:01:12;;;;;;;26.80;11.35;;;7.00;99.90;;;;;;5035930;28;20151;-65
2023/05/17 03:03:37;;;;;;;25.02;10.38;;;7.10;99.90;;;;;;5035892;28;20156;-65
2023/05/17 03:06:03;;;;;;;33.83;11.55;;;7.10;99.90;;;;;;5036148;28;20033;-65
2023/05/17 03:08:30;;;;;;;28.10;10.63;;;7.20;99.90;;;;;;5035515;28;20033;-65
2023/05/17 03:10:55;;;;;;;29.35;11.18;;;7.20;99.90;;;;;;5035538;28;20040;-65
2023/05/17 03:13:21;;;;;;;33.83;11.50;;;7.20;99.90;;;;;;5035082;28;20163;-65
2023/05/17 03:15:46;;;;;;;41.35;10.73;;;7.10;99.90;;;;;;5035388;28;20017;-65
2023/05/17 03:18:12;;;;;;;31.67;11.90;;;7.10;99.90;;;;;;5035590;28;20037;-65
2023/05/17 03:20:38;;;;;;;28.58;11.80;;;7.10;99.90;;;;;;5035339;28;20053;-65
2023/05/17 03:23:04;;;;;;;27.67;12.23;;;7.10;99.90;;;;;;5035782;28;20053;-65
2023/05/17 03:25:29;;;;;;;30.05;12.35;;;7.10;99.90;;;;;;5035707;28;20025;-65
2023/05/17 03:27:55;;;;;;;27.17;12.82;;;7.10;99.90;;;;;;5035209;28;20029;-65
2023/05/17 03:30:20;;;;;;;23.05;11.60;;;7.20;99.90;;;;;;5035161;28;20426;-65
2023/05/17 03:32:46;;;;;;;32.47;11.85;;;7.30;99.90;;;;;;5035330;28;20080;-65
2023/05/17 03:35:11;;;;;;;28.02;11.70;;;7.20;99.90;;;;;;5034271;28;20391;-65
2023/05/17 03:37:37;;;;;;;26.02;11.18;;;7.30;99.90;;;;;;5035546;28;20072;-65
2023/05/17 03:40:03;;;;;;;29.08;12.68;;;7.30;99.90;;;;;;5034920;28;20096;-65
2023/05/17 03:42:28;;;;;;;23.67;10.82;;;7.30;99.90;;;;;;5035172;28;20034;-65
2023/05/17 03:44:54;;;;;;;21.75;9.85;;;7.30;99.90;;;;;;5034872;28;20032;-65
2023/05/17 03:47:22;;;;;;;31.38;10.35;;;7.30;99.90;;;;;;5034814;28;20032;-65
2023/05/17 03:49:48;;;;;;;24.05;10.68;;;7.30;99.90;;;;;;5035286;28;20025;-65
2023/05/17 03:52:14;;;;;;;29.20;11.40;;;7.30;99.90;;;;;;5034610;28;20430;-65
2023/05/17 03:54:39;;;;;;;23.20;10.25;;;7.30;99.90;;;;;;5034688;28;20037;-65
2023/05/17 03:57:05;;;;;;;30.23;11.38;;;7.30;99.90;;;;;;5034569;28;20377;-65
2023/05/17 03:59:30;;;;;;;21.17;9.90;;;7.40;99.90;;;;;;5035053;28;20021;-65
2023/05/17 04:01:56;;;;;;;24.73;11.25;;;7.40;99.90;;;;;;5034514;28;20026;-65
2023/05/17 04:04:21;;;;;;;28.75;11.13;;;7.50;99.90;;;;;;5034451;28;20029;-65
2023/05/17 04:06:47;;;;;;;26.77;11.55;;;7.50;99.90;;;;;;5034706;28;20033;-65
2023/05/17 04:09:14;;;;;;;27.35;10.32;;;7.60;99.90;;;;;;5034933;28;20059;-65
2023/05/17 04:11:40;;;;;;;28.42;9.85;;;7.60;99.90;;;;;;5034515;28;20041;-65
2023/05/17 04:14:06;;;;;;;23.52;10.80;;;7.60;99.90;;;;;;5033020;28;20032;-65
2023/05/17 04:16:32;;;;;;;21.40;10.60;;;7.60;99.90;;;;;;5034258;28;20030;-65
2023/05/17 04:18:59;;;;;;;26.65;9.63;;;7.60;99.90;;;;;;5034529;28;20411;-65
2023/05/17 04:21:24;;;;;;;30.98;11.50;;;7.60;99.90;;;;;;5034326;28;20584;-65
2023/05/17 04:23:50;;;;;;;27.10;10.90;;;7.60;99.90;;;;;;5034694;28;20036;-65
2023/05/17 04:26:15;;;;;;;26.92;10.00;;;7.60;99.90;;;;;;5034547;28;20054;-65
2023/05/17 04:28:41;;;;;;;32.25;10.35;;;7.60;99.90;;;;;;5034300;28;20407;-65
2023/05/17 04:31:07;;;;;;;27.30;10.75;;;7.60;99.90;;;;;;5034016;28;20064;-65
2023/05/17 04:33:33;;;;;;;24.52;9.65;;;7.70;99.90;;;;;;5034482;28;20076;-65
2023/05/17 04:35:58;;;;;;;26.02;8.80;;;8.00;99.90;;;;;;5034497;28;20029;-65
2023/05/17 04:38:24;;;;;;;20.52;8.48;;;8.40;99.90;;;;;;5034490;28;20029;-65
2023/05/17 04:40:50;;;;;;;21.05;7.72;;;8.80;99.90;;;;;;5033863;28;20021;-65
2023/05/17 04:43:15;;;;;;;17.85;7.38;;;9.40;99.90;;;;;;5034381;28;20029;-65
2023/05/17 04:45:41;;;;;;;21.65;7.03;;;10.00;99.90;;;;;;5033817;28;20537;-66
2023/05/17 04:48:07;;;;;;;19.65;6.53;;;10.40;95.90;;;;;;5033777;28;20088;-66
2023/05/17 04:50:32;;;;;;;18.55;7.47;;;11.10;54.50;;;;;;5034271;28;20033;-66
2023/05/17 04:52:58;;;;;;;14.35;5.85;;;11.20;1.80;;;;;;5033872;28;20375;-65
2023/05/17 04:55:24;;;;;;;19.15;6.82;;;10.80;9.40;;;;;;5033890;28;20060;-65
2023/05/17 04:57:49;;;;;;;16.17;6.63;;;10.40;28.70;;;;;;5033946;28;20021;-66
2023/05/17 05:00:15;;;;;;;22.38;8.75;;;10.30;48.70;;;;;;5034101;28;20092;-66
2023/05/17 05:02:41;;;;;;;16.90;6.78;;;10.10;58.40;;;;;;5034150;28;20369;-66
2023/05/17 05:05:08;;;;;;;20.20;7.07;;;9.80;81.10;;;;;;5034096;28;20045;-66
2023/05/17 05:07:34;;;;;;;17.15;7.43;;;9.70;95.10;;;;;;5033687;28;20029;-65
2023/05/17 05:10:00;;;;;;;27.58;8.55;;;9.50;99.90;;;;;;5033249;28;20036;-66
2023/05/17 05:12:25;;;;;;;20.52;7.90;;;9.40;99.90;;;;;;5033320;28;20132;-65
2023/05/17 05:14:51;;;;;;;19.58;7.72;;;9.30;99.90;;;;;;5032848;28;20026;-66
2023/05/17 05:17:17;;;;;;;26.05;7.97;;;9.30;99.90;;;;;;5033697;28;20028;-65
2023/05/17 05:19:42;;;;;;;16.30;7.70;;;9.30;99.90;;;;;;5033411;28;20026;-66
2023/05/17 05:22:08;;;;;;;21.45;7.03;;;9.40;99.90;;;;;;5033739;28;20079;-66
2023/05/17 05:24:33;;;;;;;22.13;7.18;;;9.40;99.90;;;;;;5033621;28;20041;-65
2023/05/17 05:26:59;;;;;;;20.42;6.75;;;9.50;99.90;;;;;;5033623;28;20357;-66
2023/05/17 05:29:24;;;;;;;19.90;7.20;;;9.70;99.90;;;;;;5033276;28;20369;-66
2023/05/17 05:31:50;;;;;;;19.27;7.55;;;10.00;97.20;;;;;;5033523;28;20151;-66
2023/05/17 05:34:15;;;;;;;23.80;5.90;;;10.60;76.20;;;;;;5033511;28;20036;-67
2023/05/17 05:36:41;;;;;;;18.00;6.70;;;11.90;33.90;;;;;;5033777;28;20021;-66
2023/05/17 05:39:07;;;;;;;15.07;5.68;;;12.90;1.00;;;;;;5033200;28;20029;-66
2023/05/17 05:41:32;;;;;;;13.18;5.47;;;13.20;1.00;;;;;;5033744;28;20044;-66
2023/05/17 05:43:58;;;;;;;14.13;5.78;;;13.80;99.90;;;;;;5033077;28;20037;-66
2023/05/17 05:46:25;;;;;;;11.55;5.15;;;13.90;99.90;;;;;;5033383;28;20116;-66
2023/05/17 05:48:51;;;;;;;17.65;5.63;;;14.10;99.90;;;;;;5032498;28;20168;-66
2023/05/17 05:51:18;;;;;;;17.17;5.35;;;14.40;19.20;;;;;;5033437;28;20100;-66
2023/05/17 05:53:43;;;;;;;17.48;5.43;;;13.70;1.00;;;;;;5033080;28;20032;-66
2023/05/17 05:56:09;;;;;;;17.08;5.30;;;13.90;1.00;;;;;;5032076;28;20384;-66
2023/05/17 05:58:35;;;;;;;16.88;4.85;;;13.80;1.00;;;;;;5033824;28;20021;-67
2023/05/17 06:01:01;;;;;;;17.05;5.30;;;14.20;91.30;;;;;;5036369;28;20021;-66
2023/05/17 06:03:26;;;;;;;16.83;5.25;;;14.40;99.90;;;;;;5036570;28;20040;-66
2023/05/17 06:05:52;;;;;;;16.75;5.55;;;14.40;99.90;;;;;;5036428;28;20041;-67
2023/05/17 06:08:17;;;;;;;14.57;4.65;;;15.30;54.80;;;;;;5033220;28;20029;-67
2023/05/17 06:10:43;;;;;;;18.80;5.80;;;15.70;99.90;;;;;;5026086;28;20037;-67
2023/05/17 06:13:08;;;;;;;18.92;5.78;;;15.80;1.00;;;;;;5034750;28;20125;-67
2023/05/17 06:15:34;;;;;;;16.75;4.80;;;15.00;1.00;;;;;;5035951;28;20029;-67
2023/05/17 06:18:00;;;;;;;20.98;5.18;;;13.90;99.90;;;;;;5016546;28;20036;-66
2023/05/17 06:20:25;;;;;;;18.95;5.82;;;13.10;99.90;;;;;;5016253;28;20026;-66
2023/05/17 06:22:51;;;;;;;22.60;5.72;;;13.20;1.00;;;;;;5015870;28;20034;-66
2023/05/17 06:25:17;;;;;;;19.30;6.47;;;13.50;99.90;;;;;;5026982;28;20036;-66
2023/05/17 06:27:42;;;;;;;18.55;5.15;;;14.40;99.90;;;;;;5021992;28;20037;-66
2023/05/17 06:30:09;;;;;;;17.92;5.13;;;15.30;99.90;;;;;;5021596;28;20060;-67
2023/05/17 06:32:35;;;;;;;16.15;4.43;;;15.70;99.90;;;;;;5017364;28;20033;-67
2023/05/17 06:35:00;;;;;;;15.32;4.80;;;15.90;1.00;;;;;;5015629;28;20111;-67
2023/05/17 06:37:26;;;;;;;14.48;4.10;;;16.30;99.90;;;;;;5026702;28;20033;-70
2023/05/17 06:39:52;;;;;;;20.92;4.45;;;16.70;99.90;;;;;;5040563;28;20037;-67
2023/05/17 06:42:17;;;;;;;19.92;4.55;;;17.50;99.90;;;;;;5029291;28;20055;-69
2023/05/17 06:44:43;;;;;;;18.70;4.20;;;17.20;1.00;;;;;;5029932;28;20502;-69
2023/05/17 06:47:09;;;;;;;18.42;4.25;;;17.90;1.00;;;;;;5028029;28;20025;-69
2023/05/17 06:49:35;;;;;;;14.55;4.32;;;17.80;99.90;;;;;;5026654;28;20440;-69
2023/05/17 06:52:02;;;;;;;18.33;3.95;;;17.20;1.00;;;;;;5039429;28;20037;-68
2023/05/17 06:54:30;;;;;;;11.35;3.75;;;17.50;99.90;;;;;;5021928;28;20026;-69
2023/05/17 06:56:59;;;;;;;14.48;4.30;;;18.00;99.90;;;;;;5029096;28;20387;-68
2023/05/17 06:59:25;;;;;;;14.80;4.53;;;18.30;1.00;;;;;;5030783;28;20025;-67
2023/05/17 07:01:50;;;;;;;14.43;3.88;;;19.50;15.00;;;;;;5027326;28;20041;-67
2023/05/17 07:04:16;;;;;;;13.52;3.40;;;19.40;1.00;;;;;;5032340;28;20408;-67
2023/05/17 07:06:41;;;;;;;13.55;3.90;;;19.00;1.00;;;;;;5025005;28;20174;-67
2023/05/17 07:09:07;;;;;;;12.30;3.55;;;19.20;99.90;;;;;;5027095;28;20068;-66
2023/05/17 07:11:32;;;;;;;13.38;3.60;;;17.50;31.10;;;;;;5020715;28;20406;-66
2023/05/17 07:13:58;;;;;;;9.45;3.10;;;17.30;17.40;;;;;;5033920;28;20032;-67
2023/05/17 07:16:23;;;;;;;11.70;3.08;;;18.00;31.60;;;;;;5023039;28;20021;-66
2023/05/17 07:18:49;;;;;;;15.20;4.00;;;17.90;13.60;;;;;;5033640;28;20475;-66
2023/05/17 07:21:14;;;;;;;11.35;3.30;;;17.50;23.50;;;;;;5024350;28;20030;-67
2023/05/17 07:23:40;;;;;;;14.57;3.70;;;16.80;99.90;;;;;;5032822;28;20042;-66
2023/05/17 07:26:06;;;;;;;13.57;3.55;;;15.70;99.90;;;;;;5028130;28;20057;-66
2023/05/17 07:28:31;;;;;;;14.38;3.63;;;15.80;99.90;;;;;;5024736;28;20052;-66
2023/05/17 07:30:57;;;;;;;13.00;3.00;;;15.30;99.90;;;;;;5034459;28;20036;-66
2023/05/17 07:33:22;;;;;;;12.85;3.38;;;15.80;99.90;;;;;;5032092;28;20068;-65
2023/05/17 07:35:48;;;;;;;11.13;2.70;;;17.00;99.90;;;;;;5028129;28;20448;-66
2023/05/17 07:38:13;;;;;;;8.90;2.60;;;17.10;99.90;;;;;;5027485;28;20022;-66
2023/05/17 07:40:39;;;;;;;18.67;3.60;;;17.10;99.90;;;;;;5030700;28;20068;-66
2023/05/17 07:43:04;;;;;;;15.48;3.22;;;17.10;99.90;;;;;;5025851;28;20030;-66
2023/05/17 07:45:30;;;;;;;12.52;3.47;;;15.70;99.90;;;;;;5012116;28;20030;-67
2023/05/17 07:47:55;;;;;;;15.27;3.85;;;15.50;99.90;;;;;;5025999;28;20021;-67
2023/05/17 07:50:22;;;;;;;16.63;4.22;;;14.40;1.00;;;;;;5031537;28;20083;-66
2023/05/17 07:52:47;;;;;;;14.40;3.08;;;14.20;1.00;;;;;;5029531;28;20055;-67
2023/05/17 07:55:13;;;;;;;16.15;3.25;;;14.30;99.90;;;;;;5028656;28;20487;-67
2023/05/17 07:57:38;;;;;;;14.35;2.78;;;14.00;99.90;;;;;;5033779;28;20036;-67
2023/05/17 08:00:07;;;;;;;14.98;2.97;;;13.80;99.90;;;;;;5022474;28;20026;-67
2023/05/17 08:02:33;;;;;;;10.18;1.90;;;13.40;99.90;;;;;;5024035;28;20110;-67
2023/05/17 08:04:59;;;;;;;10.20;2.15;;;13.20;99.90;;;;;;5031874;28;20027;-68
2023/05/17 08:07:24;;;;;;;9.52;2.67;;;14.80;1.00;;;;;;5032550;28;20104;-66
2023/05/17 08:09:50;;;;;;;8.82;1.95;;;16.30;1.00;;;;;;5034659;28;20052;-66
2023/05/17 08:12:15;;;;;;;8.93;2.10;;;17.60;1.00;;;;;;5029834;28;20090;-66
2023/05/17 08:14:41;;;;;;;9.85;2.90;;;16.70;99.90;;;;;;5031393;28;20538;-67
2023/05/17 08:17:07;;;;;;;12.45;2.78;;;16.20;1.00;;;;;;5021305;28;20427;-67
2023/05/17 08:19:32;;;;;;;11.35;2.38;;;15.60;1.00;;;;;;5013390;28;20029;-66
2023/05/17 08:21:57;;;;;;;10.25;2.50;;;15.20;1.00;;;;;;5028863;28;20037;-67
2023/05/17 08:24:23;;;;;;;11.88;2.58;;;14.40;1.00;;;;;;5030405;28;20041;-67
2023/05/17 08:26:48;;;;;;;15.07;3.45;;;15.70;18.50;;;;;;5019576;28;20026;-66
2023/05/17 08:29:14;;;;;;;10.13;2.78;;;15.90;1.00;;;;;;5025354;28;20040;-67
2023/05/17 08:31:39;;;;;;;9.98;2.67;;;16.10;1.00;;;;;;5030218;28;20041;-68
2023/05/17 08:34:05;;;;;;;14.57;2.83;;;15.90;1.00;;;;;;5028213;28;20044;-67
2023/05/17 08:36:31;;;;;;;10.57;2.60;;;15.40;1.00;;;;;;5030156;28;20029;-66
2023/05/17 08:38:56;;;;;;;11.23;2.53;;;15.30;1.00;;;;;;5030865;28;20064;-67
2023/05/17 08:41:22;;;;;;;14.02;3.00;;;14.70;5.20;;;;;;5031646;28;20064;-68
2023/05/17 08:43:49;;;;;;;11.30;3.03;;;14.40;74.70;;;;;;5031353;28;20390;-66
2023/05/17 08:46:15;;;;;;;12.85;2.75;;;14.20;92.10;;;;;;5019711;28;20502;-66
2023/05/17 08:48:42;;;;;;;11.05;2.92;;;14.40;99.90;;;;;;5025320;28;20466;-66
2023/05/17 08:51:10;;;;;;;11.40;2.53;;;14.60;38.00;;;;;;5025918;28;20376;-66
2023/05/17 08:53:36;;;;;;;11.55;3.60;;;14.20;41.30;;;;;;5028710;28;20534;-66
2023/05/17 08:56:04;;;;;;;12.60;2.40;;;13.60;99.90;;;;;;5031020;28;20159;-65
2023/05/17 08:58:34;;;;;;;11.05;3.20;;;13.60;99.90;;;;;;5032732;28;20029;-66
2023/05/17 09:01:01;;;;;;;11.60;3.15;;;14.20;23.10;;;;;;5029875;28;20034;-66
2023/05/17 09:03:29;;;;;;;9.07;2.33;;;15.40;1.00;;;;;;5017654;28;20080;-66
2023/05/17 09:05:54;;;;;;;12.50;3.08;;;16.30;1.00;;;;;;5030451;28;20067;-65
2023/05/17 09:08:21;;;;;;;10.88;2.38;;;15.70;1.00;;;;;;5030666;28;20394;-66
2023/05/17 09:10:46;;;;;;;10.13;2.60;;;15.60;1.00;;;;;;5017450;28;20032;-67
2023/05/17 09:13:12;;;;;;;13.77;2.50;;;15.10;1.00;;;;;;5040806;28;20049;-67
2023/05/17 09:15:41;;;;;;;10.68;2.58;;;14.90;1.00;;;;;;5027056;28;20026;-67
2023/05/17 09:18:10;;;;;;;8.82;2.42;;;14.80;1.00;;;;;;5046376;28;20433;-68
2023/05/17 09:20:37;;;;;;;8.27;2.20;;;14.70;1.00;;;;;;5027616;28;20104;-67
2023/05/17 09:23:04;;;;;;;9.63;2.78;;;15.30;1.00;;;;;;5030043;28;20487;-67
2023/05/17 09:25:30;;;;;;;9.30;2.40;;;16.50;1.00;;;;;;5027448;28;20460;-66
2023/05/17 09:28:01;;;;;;;7.15;2.10;;;17.70;1.00;;;;;;5031219;28;20029;-66
2023/05/17 09:30:29;;;;;;;8.90;2.28;;;19.10;1.00;;;;;;5031032;28;20056;-66
2023/05/17 09:32:56;;;;;;;7.55;1.90;;;18.60;1.00;;;;;;5043219;28;20109;-66
2023/05/17 09:35:30;;;;;;;7.57;2.20;;;19.00;51.40;;;;;;5030234;28;20459;-67
2023/05/17 09:38:06;;;;;;;8.05;2.30;;;17.70;99.90;;;;;;5035290;28;20616;-66
2023/05/17 09:40:33;;;;;;;10.40;2.03;;;16.90;45.70;;;;;;5036466;28;20041;-67
2023/05/17 09:42:59;;;;;;;8.70;2.40;;;17.00;73.10;;;;;;5029199;28;20038;-67
2023/05/17 09:45:25;;;;;;;9.82;2.60;;;17.10;25.70;;;;;;5031803;28;20079;-66
2023/05/17 09:47:51;;;;;;;14.57;2.67;;;16.70;13.90;;;;;;5034795;28;20064;-66
2023/05/17 09:50:18;;;;;;;13.15;2.58;;;16.40;15.90;;;;;;5025795;28;20513;-66
2023/05/17 09:52:43;;;;;;;9.80;2.50;;;16.30;73.00;;;;;;5029052;28;20063;-66
2023/05/17 09:55:11;;;;;;;7.72;2.30;;;15.90;75.10;;;;;;5036093;28;20017;-65
2023/05/17 09:57:38;;;;;;;10.52;2.38;;;15.30;13.10;;;;;;5031855;28;20025;-66
2023/05/17 10:00:08;;;;;;;9.48;2.78;;;16.10;41.60;;;;;;5030634;28;20483;-66
2023/05/17 10:02:36;;;;;;;11.27;2.60;;;17.60;22.00;;;;;;5034940;28;20068;-66
2023/05/17 10:05:04;;;;;;;12.20;2.97;;;18.10;53.00;;;;;;5050761;28;20033;-66
2023/05/17 10:07:30;;;;;;;7.28;2.47;;;17.70;20.60;;;;;;5028942;28;20029;-66
2023/05/17 10:09:57;;;;;;;11.82;2.55;;;16.70;59.90;;;;;;5034723;28;20383;-66
2023/05/17 10:12:24;;;;;;;11.30;2.40;;;16.90;97.00;;;;;;5025009;28;20547;-66
2023/05/17 10:14:51;;;;;;;8.25;2.00;;;17.60;78.70;;;;;;5030847;28;20044;-67
2023/05/17 10:17:18;;;;;;;8.07;2.50;;;18.50;48.40;;;;;;5030751;28;20487;-66
2023/05/17 10:19:44;;;;;;;8.75;2.20;;;18.80;87.40;;;;;;5031259;28;20022;-66
2023/05/17 10:22:10;;;;;;;6.93;2.63;;;19.30;99.90;;;;;;5022413;28;21097;-66
2023/05/17 10:24:37;;;;;;;10.15;2.55;;;18.30;99.90;;;;;;5023271;28;20029;-66
2023/05/17 10:27:04;;;;;;;7.95;2.58;;;17.50;99.90;;;;;;5039298;28;20068;-68
2023/05/17 10:29:30;;;;;;;12.73;2.88;;;17.50;99.90;;;;;;5016815;28;20487;-66
2023/05/17 10:31:57;;;;;;;13.07;2.70;;;17.60;90.50;;;;;;5033527;28;20494;-66
2023/05/17 10:34:26;;;;;;;9.48;2.55;;;17.40;99.90;;;;;;5025392;28;20030;-66
2023/05/17 10:36:52;;;;;;;10.52;2.72;;;16.40;99.90;;;;;;5017413;28;20037;-66
2023/05/17 10:39:20;;;;;;;8.70;2.13;;;15.90;99.90;;;;;;5029004;28;20029;-66
2023/05/17 10:41:50;;;;;;;7.47;2.30;;;15.70;99.90;;;;;;5031968;28;20022;-66
2023/05/17 10:44:16;;;;;;;8.93;2.40;;;16.80;99.90;;;;;;5016736;28;20365;-66
2023/05/17 10:46:52;;;;;;;10.60;3.10;;;17.50;99.90;;;;;;5026721;28;20399;-67
2023/05/17 10:49:18;;;;;;;8.98;2.28;;;18.00;99.90;;;;;;5024612;28;20030;-67
2023/05/17 10:51:44;;;;;;;6.40;2.15;;;17.80;99.90;;;;;;5029979;28;20384;-67
2023/05/17 10:54:17;;;;;;;11.93;2.65;;;17.90;99.90;;;;;;5028101;28;20584;-67
2023/05/17 10:56:51;;;;;;;10.27;2.10;;;17.50;99.90;;;;;;5029147;28;20113;-66
2023/05/17 10:59:21;;;;;;;11.77;2.63;;;16.90;99.90;;;;;;5031762;28;20048;-68
2023/05/17 11:07:25;;;;;;;9.60;2.58;;;16.40;99.90;;;;;;5106701;27;20128;-68
2023/05/17 11:10:12;;;;;;;10.05;2.70;;;17.40;99.90;;;;;;5090937;28;20545;-68
2023/05/17 11:12:41;;;;;;;11.30;2.83;;;17.90;99.90;;;;;;5089136;28;20525;-67
2023/05/17 11:15:10;;;;;;;10.98;2.75;;;17.50;99.90;;;;;;5091536;28;20037;-67
2023/05/17 11:17:52;;;;;;;10.32;2.72;;;17.50;99.90;;;;;;5097091;28;20023;-68
2023/05/17 11:23:06;;;;;;;8.93;2.22;;;16.20;99.90;;;;;;5097605;27;20043;-67
2023/05/17 11:25:35;;;;;;;13.63;2.88;;;15.50;99.90;;;;;;5096043;28;20028;-67
2023/05/17 11:28:06;;;;;;;10.93;3.42;;;15.60;99.90;;;;;;5106068;28;20032;-67
2023/05/17 11:30:32;;;;;;;9.55;2.50;;;16.10;99.90;;;;;;5110078;28;20066;-67
2023/05/17 11:33:00;;;;;;;9.25;2.70;;;15.80;99.90;;;;;;5111440;28;20020;-68
2023/05/17 11:35:28;;;;;;;9.50;2.80;;;16.30;99.90;;;;;;5099165;28;20024;-68
2023/05/17 11:38:20;;;;;;;10.77;2.95;;;17.10;99.90;;;;;;5090734;28;20028;-67
2023/05/17 11:40:48;;;;;;;8.35;2.65;;;17.00;99.90;;;;;;5093917;28;20111;-67
2023/05/17 11:43:17;;;;;;;10.07;2.90;;;16.80;99.90;;;;;;5099888;28;20020;-68
2023/05/17 11:45:52;;;;;;;9.57;2.50;;;15.90;99.90;;;;;;5103201;28;20020;-68
2023/05/17 11:48:21;;;;;;;8.85;2.60;;;15.50;99.90;;;;;;5093298;28;20019;-69
2023/05/17 11:50:48;;;;;;;12.40;2.63;;;15.60;99.90;;;;;;5102941;28;20051;-68
2023/05/17 11:53:14;;;;;;;14.00;2.85;;;15.60;99.90;;;;;;5106979;28;20750;-68
2023/05/17 11:55:42;;;;;;;10.40;2.50;;;15.70;99.90;;;;;;5102456;28;20394;-68
2023/05/17 11:58:10;;;;;;;11.43;2.55;;;16.00;99.90;;;;;;5096047;28;20457;-69
2023/05/17 12:00:40;;;;;;;6.20;2.42;;;16.60;99.90;;;;;;5105465;28;20024;-68
2023/05/17 12:03:24;;;;;;;13.40;2.75;;;16.80;99.90;;;;;;5090862;28;20052;-67
2023/05/17 12:05:51;;;;;;;;;;;16.20;99.90;;;;;;5095908;28;20032;-69
2023/05/17 12:08:17;;;;;;;9.02;1.95;;;16.50;99.90;;;;;;5102796;28;20312;-69
2023/05/17 12:10:48;;;;;;;12.98;3.42;;;16.30;99.90;;;;;;5095747;28;20047;-68
2023/05/17 12:13:14;;;;;;;8.93;2.40;;;16.10;99.90;;;;;;5106489;28;20027;-68
2023/05/17 12:15:43;;;;;;;8.85;2.20;;;16.70;99.90;;;;;;5097562;28;20040;-67
2023/05/17 12:18:08;;;;;;;11.30;2.42;;;17.00;99.90;;;;;;5106221;28;20027;-67
2023/05/17 12:20:36;;;;;;;6.78;2.42;;;16.70;99.90;;;;;;5104620;28;20024;-67
2023/05/17 12:23:02;;;;;;;8.23;2.50;;;15.60;99.90;;;;;;5099290;28;20048;-67
2023/05/17 12:25:28;;;;;;;9.60;2.15;;;16.20;99.90;;;;;;5106020;28;20111;-67
2023/05/17 12:28:12;;;;;;;9.30;2.70;;;16.30;99.90;;;;;;5100534;28;20031;-67
2023/05/17 12:30:38;;;;;;;9.05;2.60;;;16.70;99.90;;;;;;5104093;28;20465;-67
2023/05/17 12:33:06;;;;;;;10.70;2.70;;;16.60;99.90;;;;;;5102604;28;20030;-67
2023/05/17 12:35:32;;;;;;;12.00;3.38;;;17.10;99.90;;;;;;5094395;28;20473;-66
2023/05/17 12:37:59;;;;;;;8.75;2.25;;;17.00;99.90;;;;;;5088738;28;20051;-66
2023/05/17 12:40:24;;;;;;;10.52;2.90;;;16.70;99.90;;;;;;5090977;28;20029;-66
2023/05/17 12:42:59;;;;;;;11.90;2.58;;;15.90;99.90;;;;;;5085483;28;20478;-66
2023/05/17 12:45:25;;;;;;;10.13;3.03;;;15.80;99.90;;;;;;5090745;28;20474;-67
2023/05/17 12:47:50;;;;;;;10.82;2.78;;;15.80;99.90;;;;;;5092822;28;20039;-66
2023/05/17 12:50:25;;;;;;;10.30;2.60;;;15.90;99.90;;;;;;5093151;28;20024;-67
2023/05/17 12:52:50;;;;;;;9.55;2.67;;;15.30;99.90;;;;;;5094119;28;20028;-66